createdAt,value
2019-04-01T00:00:01.165Z,1.3
2019-04-01T00:10:01.285Z,1.5
2019-04-01T00:15:01.290Z,1.7
2019-04-01T00:20:01.149Z,1.8
2019-04-01T00:25:01.304Z,2.2
2019-04-01T00:30:01.160Z,2.2
2019-04-01T00:40:01.287Z,2.0
2019-04-01T00:45:01.215Z,2.0
2019-04-01T00:50:02.359Z,1.5
2019-04-01T01:00:01.227Z,1.4
2019-04-01T01:05:01.279Z,1.7
2019-04-01T01:15:01.216Z,1.7
2019-04-01T01:30:01.335Z,1.3
2019-04-01T01:35:01.366Z,1.4
2019-04-01T01:40:01.276Z,1.3
2019-04-01T01:45:01.166Z,1.5
2019-04-01T01:50:01.198Z,1.9
2019-04-01T01:55:01.237Z,2.0
2019-04-01T02:00:02.174Z,2.2
2019-04-01T02:05:01.314Z,2.3
2019-04-01T02:15:01.195Z,2.1
2019-04-01T02:20:01.155Z,1.9
2019-04-01T02:30:01.191Z,2.0
2019-04-01T02:35:02.177Z,1.8
2019-04-01T02:40:01.155Z,2.0
2019-04-01T02:45:01.214Z,2.2
2019-04-01T02:55:06.319Z,2.1
2019-04-01T03:00:01.159Z,2.2
2019-04-01T03:05:01.211Z,1.9
2019-04-01T03:10:01.201Z,2.0
2019-04-01T03:15:01.263Z,1.9
2019-04-01T03:20:01.177Z,1.8
2019-04-01T03:25:01.272Z,1.9
2019-04-01T03:30:01.172Z,1.9
2019-04-01T03:35:01.765Z,1.8
2019-04-01T03:45:01.355Z,1.8
2019-04-01T03:50:01.216Z,1.9
2019-04-01T04:00:01.223Z,1.9
2019-04-01T04:05:01.233Z,2.1
2019-04-01T04:15:01.316Z,2.1
2019-04-01T04:20:01.183Z,2.2
2019-04-01T04:25:06.279Z,2.1
2019-04-01T04:30:01.146Z,1.9
2019-04-01T04:35:01.218Z,2.1
2019-04-01T04:40:01.166Z,2.4
2019-04-01T04:45:01.223Z,2.2
2019-04-01T04:50:01.147Z,2.3
2019-04-01T04:55:01.208Z,2.2
2019-04-01T05:00:01.143Z,2.3
2019-04-01T05:10:01.774Z,2.5
2019-04-01T05:15:01.222Z,2.8
2019-04-01T05:20:01.153Z,3.1
2019-04-01T05:30:01.644Z,3.1
2019-04-01T05:35:01.274Z,3.2
2019-04-01T05:40:01.141Z,3.0
2019-04-01T05:45:01.164Z,2.8
2019-04-01T05:50:01.141Z,2.7
2019-04-01T05:55:02.215Z,2.4
2019-04-01T06:00:01.215Z,2.1
2019-04-01T06:05:02.179Z,1.9
2019-04-01T06:10:01.150Z,2.1
2019-04-01T06:15:01.216Z,2.2
2019-04-01T06:20:01.168Z,2.3
2019-04-01T06:25:01.211Z,2.5
2019-04-01T06:30:01.162Z,2.6
2019-04-01T06:35:01.181Z,2.5
2019-04-01T06:40:01.153Z,2.4
2019-04-01T06:45:01.272Z,2.6
2019-04-01T06:50:01.156Z,2.5
2019-04-01T06:55:01.199Z,2.4
2019-04-01T07:00:01.160Z,2.4
2019-04-01T07:10:01.254Z,2.1
2019-04-01T07:15:01.163Z,2.1
2019-04-01T07:30:01.159Z,2.2
2019-04-01T07:35:01.219Z,2.1
2019-04-01T07:45:01.209Z,2.2
2019-04-01T07:50:01.198Z,2.1
2019-04-01T07:55:01.262Z,2.2
2019-04-01T08:00:01.158Z,2.6
2019-04-01T08:05:01.249Z,3.3
2019-04-01T08:10:01.200Z,3.5
2019-04-01T08:15:01.290Z,4.1
2019-04-01T08:20:01.193Z,4.3
2019-04-01T08:25:01.172Z,4.4
2019-04-01T08:30:06.173Z,4.3
2019-04-01T08:35:01.362Z,4.2
2019-04-01T08:40:01.269Z,4.1
2019-04-01T08:45:01.214Z,3.9
2019-04-01T08:50:01.183Z,3.8
2019-04-01T08:55:01.249Z,3.7
2019-04-01T09:00:01.181Z,4.3
2019-04-01T09:05:01.235Z,5.0
2019-04-01T09:10:01.198Z,5.5
2019-04-01T09:15:01.205Z,5.8
2019-04-01T09:20:01.192Z,5.3
2019-04-01T09:25:01.322Z,5.1
2019-04-01T09:30:01.161Z,4.7
2019-04-01T09:35:01.288Z,4.2
2019-04-01T09:40:01.189Z,4.0
2019-04-01T09:45:01.223Z,4.9
2019-04-01T09:50:01.223Z,4.4
2019-04-01T09:55:01.323Z,3.9
2019-04-01T10:00:01.160Z,4.1
2019-04-01T10:10:01.330Z,3.7
2019-04-01T10:15:01.159Z,4.0
2019-04-01T10:21:01.267Z,4.1
2019-04-01T10:26:01.220Z,4.3
2019-04-01T10:31:01.192Z,4.2
2019-04-01T10:36:01.326Z,4.5
2019-04-01T10:41:01.189Z,4.2
2019-04-01T10:46:01.157Z,4.3
2019-04-01T10:51:01.174Z,4.1
2019-04-01T11:01:01.269Z,3.6
2019-04-01T11:06:01.385Z,3.7
2019-04-01T11:11:01.151Z,3.9
2019-04-01T11:16:01.295Z,4.2
2019-04-01T11:21:01.170Z,4.4
2019-04-01T11:26:01.157Z,4.9
2019-04-01T11:31:01.196Z,4.7
2019-04-01T11:41:06.204Z,4.5
2019-04-01T11:46:02.043Z,4.6
2019-04-01T11:51:01.188Z,4.5
2019-04-01T11:56:01.218Z,4.7
2019-04-01T12:01:01.157Z,4.6
2019-04-01T12:06:01.148Z,4.8
2019-04-01T12:11:01.206Z,4.6
2019-04-01T12:16:01.216Z,4.8
2019-04-01T12:21:01.199Z,4.6
2019-04-01T12:31:01.220Z,4.1
2019-04-01T12:36:01.181Z,4.5
2019-04-01T12:41:01.186Z,4.1
2019-04-01T12:46:01.318Z,4.3
2019-04-01T12:51:01.182Z,4.0
2019-04-01T12:56:01.171Z,4.9
2019-04-01T13:01:01.441Z,4.3
2019-04-01T13:11:01.314Z,4.5
2019-04-01T13:17:01.256Z,4.6
2019-04-01T13:22:01.185Z,3.9
2019-04-01T13:27:01.220Z,4.0
2019-04-01T13:32:01.151Z,3.8
2019-04-01T13:37:01.286Z,3.9
2019-04-01T13:42:01.198Z,4.0
2019-04-01T13:47:01.227Z,4.2
2019-04-01T13:52:03.635Z,4.6
2019-04-01T13:57:01.215Z,5.2
2019-04-01T14:02:01.182Z,4.8
2019-04-01T14:07:01.219Z,4.7
2019-04-01T14:12:01.223Z,5.1
2019-04-01T14:17:01.251Z,5.0
2019-04-01T14:22:01.188Z,4.9
2019-04-01T14:27:01.262Z,5.6
2019-04-01T14:32:01.225Z,6.0
2019-04-01T14:37:01.293Z,5.7
2019-04-01T14:42:01.188Z,5.9
2019-04-01T14:47:01.290Z,5.7
2019-04-01T14:52:01.169Z,5.5
2019-04-01T14:57:01.257Z,5.2
2019-04-01T15:02:03.557Z,5.5
2019-04-01T15:07:01.172Z,5.1
2019-04-01T15:12:01.146Z,5.4
2019-04-01T15:17:01.213Z,5.2
2019-04-01T15:22:01.194Z,5.3
2019-04-01T15:27:01.277Z,4.8
2019-04-01T15:37:01.232Z,4.9
2019-04-01T15:42:01.148Z,4.4
2019-04-01T15:47:04.300Z,4.7
2019-04-01T15:52:06.162Z,5.3
2019-04-01T15:57:01.273Z,5.8
2019-04-01T16:02:01.156Z,5.6
2019-04-01T16:07:01.222Z,6.0
2019-04-01T16:12:01.149Z,5.8
2019-04-01T16:17:01.215Z,5.3
2019-04-01T16:22:01.150Z,4.5
2019-04-01T16:27:01.208Z,4.8
2019-04-01T16:32:01.158Z,5.1
2019-04-01T16:37:01.492Z,5.2
2019-04-01T16:42:02.171Z,5.6
2019-04-01T16:47:01.281Z,5.9
2019-04-01T16:57:01.209Z,6.1
2019-04-01T17:07:01.262Z,5.9
2019-04-01T17:12:01.168Z,5.7
2019-04-01T17:17:01.216Z,5.4
2019-04-01T17:22:01.190Z,4.7
2019-04-01T17:27:01.281Z,4.5
2019-04-01T17:32:02.154Z,4.2
2019-04-01T17:37:02.219Z,4.7
2019-04-01T17:42:01.147Z,4.8
2019-04-01T17:47:01.228Z,4.9
2019-04-01T17:52:04.185Z,5.1
2019-04-01T18:02:01.790Z,5.0
2019-04-01T18:07:01.221Z,4.8
2019-04-01T18:12:01.160Z,4.4
2019-04-01T18:17:01.275Z,4.1
2019-04-01T18:22:01.183Z,3.8
2019-04-01T18:27:06.279Z,3.4
2019-04-01T18:32:02.177Z,3.0
2019-04-01T18:37:01.209Z,3.2
2019-04-01T18:42:01.172Z,3.3
2019-04-01T18:47:03.755Z,3.2
2019-04-01T18:57:03.592Z,3.5
2019-04-01T19:12:04.009Z,3.5
2019-04-01T19:17:01.297Z,3.3
2019-04-01T19:22:01.180Z,3.6
2019-04-01T19:32:01.205Z,3.7
2019-04-01T19:37:01.348Z,3.6
2019-04-01T19:42:01.220Z,3.8
2019-04-01T19:47:01.277Z,3.7
2019-04-01T19:52:01.189Z,3.6
2019-04-01T19:57:01.294Z,3.5
2019-04-01T20:02:01.150Z,3.4
2019-04-01T20:07:01.248Z,3.2
2019-04-01T20:12:01.162Z,3.0
2019-04-01T20:27:01.317Z,3.2
2019-04-01T20:32:16.499Z,3.1
2019-04-01T20:37:01.167Z,2.9
2019-04-01T20:42:01.161Z,2.6
2019-04-01T20:47:01.352Z,2.5
2019-04-01T20:52:01.175Z,2.3
2019-04-01T20:57:01.304Z,2.4
2019-04-01T21:02:01.184Z,2.3
2019-04-01T21:07:01.300Z,2.4
2019-04-01T21:12:03.008Z,2.3
2019-04-01T21:22:02.232Z,2.2
2019-04-01T21:32:01.227Z,2.3
2019-04-01T21:37:03.297Z,2.5
2019-04-01T21:42:01.170Z,2.7
2019-04-01T21:52:02.090Z,2.8
2019-04-01T21:57:01.349Z,2.9
2019-04-01T22:02:01.191Z,3.1
2019-04-01T22:12:01.225Z,3.5
2019-04-01T22:17:01.271Z,3.9
2019-04-01T22:32:01.285Z,4.0
2019-04-01T22:37:01.223Z,4.1
2019-04-01T22:42:01.158Z,4.0
2019-04-01T22:47:01.284Z,4.1
2019-04-01T22:52:01.190Z,4.3
2019-04-01T22:57:01.255Z,4.5
2019-04-01T23:02:01.159Z,4.8
2019-04-01T23:17:01.217Z,4.8
2019-04-01T23:27:01.285Z,4.5
2019-04-01T23:32:01.163Z,4.8
2019-04-01T23:37:01.255Z,5.0
2019-04-01T23:42:01.161Z,5.2
2019-04-01T23:52:01.235Z,5.3
